Time;durP1;ratioP1;P1;durP2;ratioP2;P2;SDS_P1;SDS_P2;PMS_P1;PMS_P2;Temp;Humidity;BMP_temperature;BMP_pressure;BME280_temperature;BME280_humidity;BME280_pressure;Samples;Min_cycle;Max_cycle;Signal;HPM_P1;HPM_P2
2022/02/14 00:01:38;;;;;;;14.48;6.68;;;1.40;65.30;;;;;;4992012;28;20030;-67
2022/02/14 00:04:04;;;;;;;13.98;6.68;;;1.40;65.40;;;;;;4977266;28;20038;-67
2022/02/14 00:06:29;;;;;;;14.32;7.18;;;1.40;66.40;;;;;;4977643;28;20521;-66
2022/02/14 00:08:55;;;;;;;12.93;6.55;;;1.40;65.60;;;;;;4977055;28;20112;-67
2022/02/14 00:11:24;;;;;;;11.82;6.53;;;1.40;65.60;;;;;;4980438;28;20050;-69
2022/02/14 00:13:50;;;;;;;14.80;6.93;;;1.40;65.70;;;;;;4976805;28;20054;-69
2022/02/14 00:16:16;;;;;;;12.88;6.88;;;1.40;65.70;;;;;;4979497;28;20065;-69
2022/02/14 00:18:42;;;;;;;14.52;6.95;;;1.40;65.60;;;;;;4977747;28;20054;-67
2022/02/14 00:21:08;;;;;;;11.60;6.22;;;1.40;65.60;;;;;;4976713;28;20033;-67
2022/02/14 00:23:33;;;;;;;10.10;5.93;;;1.40;65.70;;;;;;4976576;28;20038;-68
2022/02/14 00:25:59;;;;;;;10.00;5.80;;;1.40;65.70;;;;;;4978844;28;20505;-69
2022/02/14 00:28:24;;;;;;;9.90;6.25;;;1.30;65.60;;;;;;4978152;28;20382;-68
2022/02/14 00:30:50;;;;;;;9.80;5.78;;;1.30;66.60;;;;;;4976869;28;20054;-68
2022/02/14 00:33:16;;;;;;;9.30;6.22;;;1.30;66.00;;;;;;4978653;28;20162;-69
2022/02/14 00:35:42;;;;;;;11.45;5.60;;;1.30;65.80;;;;;;4976352;28;20122;-67
2022/02/14 00:38:08;;;;;;;10.60;5.40;;;1.40;65.90;;;;;;4976616;28;20113;-68
2022/02/14 00:40:35;;;;;;;11.35;5.75;;;1.30;65.90;;;;;;4975105;28;20045;-66
2022/02/14 00:43:03;;;;;;;9.98;5.20;;;1.30;65.80;;;;;;4978745;28;20065;-67
2022/02/14 00:45:29;;;;;;;11.52;5.72;;;1.30;65.80;;;;;;4979619;28;20066;-69
2022/02/14 00:47:54;;;;;;;9.32;5.50;;;1.30;65.80;;;;;;4976231;28;20062;-68
2022/02/14 00:50:20;;;;;;;10.20;5.72;;;1.40;65.80;;;;;;4976779;28;20031;-66
2022/02/14 00:52:46;;;;;;;11.73;5.85;;;1.40;65.60;;;;;;4977257;28;20125;-69
2022/02/14 00:55:13;;;;;;;8.50;5.72;;;1.40;65.60;;;;;;4977738;28;20517;-69
2022/02/14 00:57:40;;;;;;;11.00;6.20;;;1.40;65.80;;;;;;4979045;28;20031;-69
2022/02/14 01:00:09;;;;;;;9.07;5.18;;;1.40;65.80;;;;;;4978387;28;20031;-67
2022/02/14 01:02:35;;;;;;;11.98;6.82;;;1.30;65.70;;;;;;4975777;28;20567;-69
2022/02/14 01:05:01;;;;;;;11.95;7.28;;;1.30;65.60;;;;;;4975469;28;20037;-68
2022/02/14 01:07:27;;;;;;;11.23;6.70;;;1.30;66.00;;;;;;4973375;28;20636;-67
2022/02/14 01:09:52;;;;;;;11.38;7.30;;;1.20;66.00;;;;;;4977458;28;20469;-67
2022/02/14 01:12:18;;;;;;;11.57;6.95;;;1.20;66.10;;;;;;4980606;28;20081;-68
2022/02/14 01:14:43;;;;;;;11.68;6.88;;;1.20;66.20;;;;;;4976225;28;20050;-68
2022/02/14 01:17:09;;;;;;;12.00;7.00;;;1.10;66.20;;;;;;4977690;28;20046;-69
2022/02/14 01:19:35;;;;;;;13.13;6.93;;;1.10;66.20;;;;;;4977052;28;20042;-67
2022/02/14 01:22:00;;;;;;;9.77;6.35;;;1.10;66.30;;;;;;4975102;28;20062;-69
2022/02/14 01:24:26;;;;;;;14.25;7.07;;;1.10;66.30;;;;;;4975799;28;20472;-67
2022/02/14 01:26:52;;;;;;;14.32;7.72;;;1.10;66.20;;;;;;4976732;28;20034;-68
2022/02/14 01:29:18;;;;;;;14.65;7.30;;;1.10;66.30;;;;;;4978190;28;20030;-69
2022/02/14 01:31:44;;;;;;;13.73;7.45;;;1.10;66.50;;;;;;4977413;28;20038;-67
2022/02/14 01:34:09;;;;;;;11.70;7.28;;;1.00;66.40;;;;;;4977200;28;20030;-69
2022/02/14 01:36:35;;;;;;;11.88;7.15;;;1.00;66.50;;;;;;4977951;28;20120;-67
2022/02/14 01:39:01;;;;;;;11.65;7.03;;;1.00;66.60;;;;;;4976209;28;20974;-69
2022/02/14 01:41:26;;;;;;;11.73;6.85;;;1.00;66.60;;;;;;4975767;28;20030;-67
2022/02/14 01:43:52;;;;;;;12.73;7.13;;;0.90;66.60;;;;;;4977067;28;20038;-69
2022/02/14 01:46:17;;;;;;;9.48;6.70;;;0.90;66.70;;;;;;4976400;28;20259;-69
2022/02/14 01:48:43;;;;;;;10.90;6.82;;;0.90;66.90;;;;;;4975575;28;20045;-68
2022/02/14 01:51:09;;;;;;;11.20;6.93;;;0.90;67.00;;;;;;4975972;28;20037;-69
2022/02/14 01:53:35;;;;;;;10.30;6.53;;;0.90;67.00;;;;;;4976382;28;20038;-69
2022/02/14 01:56:01;;;;;;;11.43;6.80;;;0.90;66.90;;;;;;4976229;28;20035;-67
2022/02/14 01:58:27;;;;;;;11.07;6.35;;;0.90;66.80;;;;;;4976102;28;20192;-69
2022/02/14 02:00:53;;;;;;;11.27;6.28;;;0.90;66.70;;;;;;4975956;28;20544;-69
2022/02/14 02:03:18;;;;;;;9.57;5.90;;;0.90;66.70;;;;;;4976577;28;20096;-67
2022/02/14 02:05:45;;;;;;;9.65;6.65;;;0.90;66.70;;;;;;4975935;28;20065;-67
2022/02/14 02:08:13;;;;;;;8.80;5.97;;;0.90;66.80;;;;;;4971982;28;20592;-69
2022/02/14 02:10:39;;;;;;;9.32;6.10;;;0.90;66.90;;;;;;4975541;28;20038;-68
2022/02/14 02:13:04;;;;;;;11.43;6.70;;;0.90;66.80;;;;;;4974631;28;20046;-69
2022/02/14 02:15:31;;;;;;;10.93;6.90;;;0.90;66.80;;;;;;4974120;28;20046;-67
2022/02/14 02:17:57;;;;;;;10.73;6.45;;;0.90;66.80;;;;;;4975848;28;20509;-68
2022/02/14 02:20:23;;;;;;;13.38;6.32;;;0.90;66.80;;;;;;4973686;28;20042;-67
2022/02/14 02:22:50;;;;;;;11.82;7.20;;;0.90;66.80;;;;;;4973929;28;20066;-69
2022/02/14 02:25:17;;;;;;;15.35;6.55;;;0.80;66.90;;;;;;4976314;28;20047;-67
2022/02/14 02:27:43;;;;;;;12.98;6.00;;;0.80;66.80;;;;;;4976516;28;20117;-67
2022/02/14 02:30:11;;;;;;;11.43;6.40;;;0.80;67.00;;;;;;4977239;28;20058;-65
2022/02/14 02:32:37;;;;;;;10.48;6.28;;;0.70;67.00;;;;;;4973501;28;20030;-68
2022/02/14 02:35:04;;;;;;;11.10;6.22;;;0.70;67.20;;;;;;4975968;28;20101;-69
2022/02/14 02:37:30;;;;;;;8.48;5.63;;;0.70;67.10;;;;;;4978121;28;20121;-69
2022/02/14 02:39:57;;;;;;;9.00;6.05;;;0.70;67.20;;;;;;4991710;28;20153;-67
2022/02/14 02:42:23;;;;;;;10.35;5.80;;;0.60;67.20;;;;;;4977546;28;20038;-68
2022/02/14 02:44:50;;;;;;;13.00;6.20;;;0.70;67.50;;;;;;4979693;28;20038;-68
2022/02/14 02:47:18;;;;;;;9.55;6.20;;;0.60;67.30;;;;;;4977167;28;20031;-67
2022/02/14 02:49:44;;;;;;;9.90;6.40;;;0.60;67.40;;;;;;4977001;28;20484;-69
2022/02/14 02:52:12;;;;;;;12.23;6.70;;;0.60;67.50;;;;;;4975880;28;20065;-67
2022/02/14 02:54:38;;;;;;;9.15;6.10;;;0.50;67.60;;;;;;4973691;28;20022;-67
2022/02/14 02:57:05;;;;;;;11.75;6.32;;;0.50;67.80;;;;;;4973640;28;20504;-66
2022/02/14 02:59:34;;;;;;;10.65;5.40;;;0.50;67.90;;;;;;4974175;28;20041;-69
2022/02/14 03:02:05;;;;;;;9.35;6.05;;;0.50;67.90;;;;;;4974274;28;20034;-69
2022/02/14 03:04:31;;;;;;;9.05;5.75;;;0.50;68.00;;;;;;4975875;28;20568;-69
2022/02/14 03:06:57;;;;;;;11.95;6.25;;;0.50;67.90;;;;;;4974729;28;20038;-67
2022/02/14 03:09:23;;;;;;;10.82;5.93;;;0.50;67.90;;;;;;4975350;28;20445;-67
2022/02/14 03:11:49;;;;;;;12.05;6.00;;;0.50;67.70;;;;;;4977411;28;20409;-66
2022/02/14 03:14:15;;;;;;;9.27;5.55;;;0.50;67.70;;;;;;4977542;28;20493;-66
2022/02/14 03:16:41;;;;;;;10.13;6.30;;;0.50;67.70;;;;;;4979465;28;20045;-68
2022/02/14 03:19:07;;;;;;;8.93;5.40;;;0.40;67.80;;;;;;4977810;28;20037;-68
2022/02/14 03:21:34;;;;;;;9.48;5.80;;;0.40;67.80;;;;;;4979061;28;20035;-66
2022/02/14 03:24:00;;;;;;;10.35;5.93;;;0.40;67.90;;;;;;4978196;28;20034;-67
2022/02/14 03:26:26;;;;;;;9.82;6.47;;;0.40;67.90;;;;;;4978742;28;20601;-68
2022/02/14 03:28:54;;;;;;;10.75;6.25;;;0.40;67.80;;;;;;4977154;28;20041;-68
2022/02/14 03:31:20;;;;;;;9.48;5.85;;;0.40;67.90;;;;;;4977871;28;20063;-69
2022/02/14 03:33:46;;;;;;;10.13;5.72;;;0.40;67.90;;;;;;4990076;28;20041;-68
2022/02/14 03:36:14;;;;;;;12.07;6.22;;;0.40;67.80;;;;;;4979677;28;20704;-68
2022/02/14 03:38:42;;;;;;;9.18;5.50;;;0.40;67.90;;;;;;4976975;28;20398;-68
2022/02/14 03:41:08;;;;;;;11.00;5.40;;;0.30;67.80;;;;;;4976794;28;20061;-69
2022/02/14 03:43:34;;;;;;;7.97;4.78;;;0.30;67.80;;;;;;4979637;28;20042;-68
2022/02/14 03:45:59;;;;;;;7.65;4.90;;;0.30;67.90;;;;;;4980896;28;20041;-68
2022/02/14 03:48:25;;;;;;;10.77;5.57;;;0.30;67.90;;;;;;4980292;28;20043;-69
2022/02/14 03:50:55;;;;;;;9.75;5.40;;;0.30;67.80;;;;;;4993796;28;20070;-69
2022/02/14 03:53:23;;;;;;;11.93;5.97;;;0.30;67.90;;;;;;4993204;28;20469;-68
2022/02/14 03:55:49;;;;;;;12.07;6.32;;;0.30;67.90;;;;;;4979720;28;20042;-69
2022/02/14 03:58:15;;;;;;;9.77;5.78;;;0.30;67.90;;;;;;4979308;28;20069;-68
2022/02/14 04:00:41;;;;;;;9.77;5.70;;;0.30;67.90;;;;;;4979539;28;20039;-69
2022/02/14 04:03:07;;;;;;;10.55;5.82;;;0.30;67.90;;;;;;4984422;28;20673;-69
2022/02/14 04:05:33;;;;;;;10.07;6.55;;;0.30;67.90;;;;;;4980698;28;20038;-66
2022/02/14 04:07:59;;;;;;;12.80;6.90;;;0.20;67.70;;;;;;4982663;28;20038;-69
2022/02/14 04:10:26;;;;;;;11.43;6.80;;;0.30;67.90;;;;;;4979078;28;20042;-70
2022/02/14 04:12:53;;;;;;;10.73;6.43;;;0.20;67.90;;;;;;4981828;28;20070;-69
2022/02/14 04:15:18;;;;;;;9.20;5.50;;;0.20;67.90;;;;;;4977737;28;20066;-69
2022/02/14 04:17:45;;;;;;;10.55;6.20;;;0.20;67.90;;;;;;4979647;28;20077;-68
2022/02/14 04:20:12;;;;;;;11.30;5.47;;;0.20;68.00;;;;;;4979106;28;20692;-68
2022/02/14 04:22:40;;;;;;;7.90;4.90;;;0.20;68.20;;;;;;4978969;28;20430;-68
2022/02/14 04:25:07;;;;;;;9.27;4.68;;;0.20;68.20;;;;;;4978446;28;20041;-68
2022/02/14 04:27:33;;;;;;;9.82;5.95;;;0.20;68.30;;;;;;4978222;28;20045;-68
2022/02/14 04:29:58;;;;;;;10.70;6.07;;;0.20;68.40;;;;;;4993394;28;20492;-69
2022/02/14 04:32:24;;;;;;;9.63;6.63;;;0.20;68.40;;;;;;4977963;28;20038;-69
2022/02/14 04:34:50;;;;;;;11.73;5.80;;;0.20;68.40;;;;;;4979552;28;20045;-68
2022/02/14 04:37:16;;;;;;;13.23;6.20;;;0.20;68.40;;;;;;4979909;28;20121;-68
2022/02/14 04:39:42;;;;;;;8.43;5.35;;;0.20;68.40;;;;;;4978497;28;20089;-69
2022/02/14 04:42:08;;;;;;;9.77;6.18;;;0.20;68.30;;;;;;4980172;28;20061;-67
2022/02/14 04:44:33;;;;;;;11.55;5.35;;;0.10;68.20;;;;;;4975710;28;20154;-69
2022/02/14 04:46:59;;;;;;;10.82;5.88;;;0.10;68.30;;;;;;4980453;28;20113;-68
2022/02/14 04:49:24;;;;;;;13.95;6.50;;;0.10;68.40;;;;;;4977108;28;20035;-68
2022/02/14 04:51:50;;;;;;;11.38;6.90;;;0.10;68.60;;;;;;4977388;28;20527;-69
2022/02/14 04:54:16;;;;;;;13.05;5.93;;;0.10;68.70;;;;;;4991674;28;20078;-69
2022/02/14 04:56:41;;;;;;;13.48;6.40;;;0.10;68.70;;;;;;4989424;28;20038;-67
2022/02/14 04:59:09;;;;;;;12.45;7.07;;;0.10;69.70;;;;;;4977446;28;20041;-65
2022/02/14 05:01:34;;;;;;;10.20;6.57;;;0.10;68.90;;;;;;4978649;28;20031;-66
2022/02/14 05:04:00;;;;;;;12.40;6.97;;;0.10;68.90;;;;;;4979145;28;20034;-68
2022/02/14 05:06:26;;;;;;;14.70;7.38;;;0.10;69.00;;;;;;4976747;28;20097;-68
2022/02/14 05:08:51;;;;;;;15.65;7.35;;;0.10;69.00;;;;;;4991592;28;20145;-67
2022/02/14 05:11:17;;;;;;;13.82;7.18;;;0.10;69.30;;;;;;4975957;28;20038;-68
2022/02/14 05:13:45;;;;;;;14.77;7.03;;;0.10;69.30;;;;;;4977988;28;20065;-69
2022/02/14 05:16:11;;;;;;;18.83;8.88;;;0.10;69.30;;;;;;4978763;28;20730;-66
2022/02/14 05:18:37;;;;;;;18.90;10.93;;;0.10;69.70;;;;;;4977092;28;20110;-68
2022/02/14 05:21:03;;;;;;;19.83;10.23;;;0.10;69.60;;;;;;4978936;28;20057;-67
2022/02/14 05:23:29;;;;;;;16.65;8.80;;;0.20;69.70;;;;;;4976370;28;20049;-68
2022/02/14 05:25:55;;;;;;;16.85;8.75;;;0.20;69.80;;;;;;4976294;28;20542;-69
2022/02/14 05:28:20;;;;;;;17.95;9.35;;;0.20;69.60;;;;;;4977058;28;20034;-67
2022/02/14 05:30:47;;;;;;;16.17;8.07;;;0.20;69.80;;;;;;4979016;28;20058;-68
2022/02/14 05:33:13;;;;;;;17.17;8.43;;;0.30;69.80;;;;;;4974360;28;20256;-69
2022/02/14 05:35:39;;;;;;;15.82;8.43;;;0.20;70.30;;;;;;4976633;28;20038;-69
2022/02/14 05:38:05;;;;;;;20.95;9.10;;;0.20;70.10;;;;;;4980724;28;20106;-68
2022/02/14 05:40:30;;;;;;;17.30;8.98;;;0.20;70.50;;;;;;4990227;28;20608;-68
2022/02/14 05:42:56;;;;;;;15.80;8.40;;;0.30;70.50;;;;;;4976563;28;20118;-68
2022/02/14 05:45:21;;;;;;;18.42;9.45;;;0.30;70.50;;;;;;4977409;28;20271;-68
2022/02/14 05:47:47;;;;;;;13.68;7.88;;;0.30;70.50;;;;;;4976327;28;20034;-68
2022/02/14 05:50:13;;;;;;;14.93;8.23;;;0.40;70.50;;;;;;4975244;28;20405;-68
2022/02/14 05:52:42;;;;;;;16.52;8.13;;;0.40;70.40;;;;;;4977978;28;20105;-68
2022/02/14 05:55:08;;;;;;;14.13;7.97;;;0.40;70.50;;;;;;4977181;28;20070;-67
2022/02/14 05:57:34;;;;;;;17.77;9.93;;;0.40;70.30;;;;;;4977366;28;20039;-67
2022/02/14 06:00:00;;;;;;;21.52;8.68;;;0.50;70.40;;;;;;4977599;28;20097;-68
2022/02/14 06:02:27;;;;;;;18.73;8.65;;;0.50;70.50;;;;;;4976343;28;20615;-68
2022/02/14 06:04:52;;;;;;;14.65;8.55;;;0.50;70.40;;;;;;4976160;28;20038;-65
2022/02/14 06:07:19;;;;;;;13.95;8.32;;;0.50;70.30;;;;;;4976544;28;20030;-69
2022/02/14 06:09:44;;;;;;;19.90;8.85;;;0.60;70.50;;;;;;4976423;28;20038;-67
2022/02/14 06:12:10;;;;;;;13.25;7.70;;;0.60;70.50;;;;;;4978094;28;20108;-67
2022/02/14 06:14:36;;;;;;;18.63;8.40;;;0.60;70.50;;;;;;4976185;28;20038;-65
2022/02/14 06:17:02;;;;;;;15.50;9.27;;;0.70;70.40;;;;;;4977421;28;20126;-66
2022/02/14 06:19:27;;;;;;;21.70;8.88;;;0.70;70.40;;;;;;4975205;28;20039;-67
2022/02/14 06:21:53;;;;;;;17.02;9.10;;;0.70;70.40;;;;;;4975519;28;20141;-65
2022/02/14 06:24:18;;;;;;;15.60;8.88;;;0.80;70.50;;;;;;4976755;28;20065;-66
2022/02/14 06:26:44;;;;;;;15.95;9.15;;;0.80;70.50;;;;;;4975753;28;20036;-67
2022/02/14 06:29:10;;;;;;;17.85;9.80;;;0.90;70.50;;;;;;4977644;28;20057;-68
2022/02/14 06:31:36;;;;;;;19.00;10.50;;;0.90;70.40;;;;;;4977463;28;20754;-66
2022/02/14 06:34:01;;;;;;;18.13;10.20;;;0.90;70.30;;;;;;4976568;28;20034;-69
2022/02/14 06:36:28;;;;;;;15.55;9.68;;;1.00;70.40;;;;;;4975149;28;20065;-67
2022/02/14 06:38:55;;;;;;;16.33;9.63;;;1.00;70.30;;;;;;4976119;28;20034;-66
2022/02/14 06:41:21;;;;;;;20.55;10.10;;;1.00;70.30;;;;;;4976162;28;20034;-66
2022/02/14 06:43:47;;;;;;;22.65;10.18;;;1.00;70.20;;;;;;4977238;28;20038;-67
2022/02/14 06:46:13;;;;;;;18.48;8.98;;;1.00;70.10;;;;;;4978104;28;20039;-70
2022/02/14 06:48:39;;;;;;;17.00;9.43;;;1.00;70.10;;;;;;4981173;28;20096;-67
2022/02/14 06:51:05;;;;;;;20.90;8.68;;;1.00;70.00;;;;;;4982801;28;20119;-66
2022/02/14 06:53:30;;;;;;;17.88;9.75;;;1.00;70.00;;;;;;4982079;28;20042;-66
2022/02/14 06:55:56;;;;;;;20.27;9.95;;;1.00;69.90;;;;;;4983346;28;20042;-67
2022/02/14 06:58:22;;;;;;;16.83;9.02;;;1.00;70.00;;;;;;4981197;28;20053;-67
2022/02/14 07:00:48;;;;;;;18.13;9.43;;;1.00;69.90;;;;;;4979738;28;20089;-66
2022/02/14 07:03:14;;;;;;;22.88;10.40;;;1.00;69.90;;;;;;4987193;28;20030;-67
2022/02/14 07:05:41;;;;;;;22.65;9.70;;;1.00;69.90;;;;;;4981983;28;20043;-67
2022/02/14 07:08:07;;;;;;;29.08;11.00;;;1.00;69.90;;;;;;4978041;28;20042;-66
2022/02/14 07:10:32;;;;;;;26.98;12.35;;;1.00;70.00;;;;;;4978906;28;20043;-66
2022/02/14 07:12:58;;;;;;;24.92;12.02;;;1.00;70.00;;;;;;4982993;28;20401;-69
2022/02/14 07:15:24;;;;;;;22.13;11.73;;;1.00;70.00;;;;;;4981874;28;20524;-68
2022/02/14 07:17:50;;;;;;;25.63;12.27;;;1.00;70.10;;;;;;4980470;28;20026;-67
2022/02/14 07:20:16;;;;;;;23.75;11.82;;;1.00;69.90;;;;;;4978438;28;20093;-68
2022/02/14 07:22:43;;;;;;;31.48;13.63;;;1.00;69.90;;;;;;4980923;28;20038;-66
2022/02/14 07:25:09;;;;;;;23.35;12.35;;;1.00;70.60;;;;;;4980388;28;20035;-66
2022/02/14 07:27:36;;;;;;;32.70;13.23;;;1.00;69.80;;;;;;4981784;28;20390;-66
2022/02/14 07:30:06;;;;;;;27.45;13.60;;;1.00;69.80;;;;;;4981086;28;20046;-66
2022/02/14 07:32:32;;;;;;;25.00;12.98;;;1.00;70.00;;;;;;4981154;28;20043;-66
2022/02/14 07:34:57;;;;;;;39.33;15.82;;;1.00;69.80;;;;;;4980507;28;20038;-66
2022/02/14 07:37:24;;;;;;;37.80;14.77;;;1.00;69.80;;;;;;4982131;28;20038;-66
2022/02/14 07:39:50;;;;;;;34.75;16.30;;;1.00;69.90;;;;;;4980660;28;20046;-66
2022/02/14 07:42:15;;;;;;;32.00;14.60;;;1.00;69.90;;;;;;4980129;28;20042;-66
2022/02/14 07:44:41;;;;;;;25.63;12.10;;;1.00;70.10;;;;;;4980882;28;20493;-66
2022/02/14 07:47:07;;;;;;;27.08;12.50;;;1.00;70.30;;;;;;4981336;28;20022;-65
2022/02/14 07:49:33;;;;;;;28.55;11.80;;;1.00;70.30;;;;;;4980603;28;20453;-65
2022/02/14 07:51:58;;;;;;;28.88;12.20;;;1.00;70.30;;;;;;4980944;28;20062;-67
2022/02/14 07:54:24;;;;;;;21.17;12.52;;;1.00;70.30;;;;;;4980193;28;20065;-67
2022/02/14 07:56:49;;;;;;;24.65;12.20;;;1.00;70.40;;;;;;4982855;28;20146;-66
2022/02/14 07:59:15;;;;;;;24.30;12.27;;;1.10;70.50;;;;;;4980170;28;20516;-65
2022/02/14 08:01:41;;;;;;;30.35;13.45;;;1.10;70.60;;;;;;4980391;28;20080;-68
2022/02/14 08:04:07;;;;;;;34.65;15.68;;;1.10;70.50;;;;;;4979184;28;20508;-66
2022/02/14 08:06:33;;;;;;;28.02;13.73;;;1.10;70.60;;;;;;4979568;28;20718;-67
2022/02/14 08:08:59;;;;;;;32.10;14.73;;;1.20;71.00;;;;;;4979572;28;20314;-67
2022/02/14 08:11:25;;;;;;;23.33;12.38;;;1.20;70.80;;;;;;4977140;28;20038;-66
2022/02/14 08:13:50;;;;;;;16.60;9.68;;;1.20;70.90;;;;;;4980387;28;20038;-66
2022/02/14 08:16:16;;;;;;;15.75;8.75;;;1.30;71.30;;;;;;4978814;28;20031;-67
2022/02/14 08:18:42;;;;;;;18.60;10.32;;;1.30;70.90;;;;;;4979504;28;20039;-68
2022/02/14 08:21:07;;;;;;;18.35;9.07;;;1.30;70.90;;;;;;4977786;28;20037;-66
2022/02/14 08:23:33;;;;;;;19.92;10.23;;;1.30;70.80;;;;;;4978979;28;20041;-69
2022/02/14 08:25:58;;;;;;;13.88;8.30;;;1.40;71.00;;;;;;4978079;28;20081;-66
2022/02/14 08:28:24;;;;;;;12.18;7.75;;;1.40;71.10;;;;;;4976092;28;20205;-68
2022/02/14 08:30:50;;;;;;;15.30;8.80;;;1.50;71.00;;;;;;4976635;28;20521;-66
2022/02/14 08:33:17;;;;;;;15.82;9.98;;;1.50;71.20;;;;;;4978959;28;20098;-66
2022/02/14 08:35:44;;;;;;;15.85;8.23;;;1.60;71.20;;;;;;4977286;28;20039;-67
2022/02/14 08:38:11;;;;;;;12.35;8.10;;;1.70;71.50;;;;;;4980579;28;20508;-67
2022/02/14 08:40:37;;;;;;;15.02;7.60;;;1.70;71.50;;;;;;4976576;28;20114;-69
2022/02/14 08:43:03;;;;;;;17.52;8.18;;;1.80;71.30;;;;;;4980353;28;20037;-67
2022/02/14 08:45:31;;;;;;;13.60;7.75;;;1.90;71.30;;;;;;4979663;28;20039;-70
2022/02/14 08:47:57;;;;;;;10.27;6.45;;;1.90;72.00;;;;;;4977327;28;20859;-66
2022/02/14 08:50:22;;;;;;;11.07;6.40;;;2.00;71.20;;;;;;4977456;28;20073;-66
2022/02/14 08:52:48;;;;;;;11.32;7.32;;;2.10;71.20;;;;;;4979049;28;20035;-67
2022/02/14 08:55:15;;;;;;;10.60;6.57;;;2.20;70.60;;;;;;4977181;28;20464;-69
2022/02/14 08:57:41;;;;;;;11.88;6.43;;;2.30;70.60;;;;;;4978076;28;20038;-67
2022/02/14 09:00:08;;;;;;;12.02;7.05;;;2.40;70.50;;;;;;4977200;28;20034;-69
2022/02/14 09:02:34;;;;;;;10.68;6.63;;;2.60;70.50;;;;;;4972502;28;20031;-68
2022/02/14 09:05:00;;;;;;;12.25;6.88;;;2.60;70.40;;;;;;4978874;28;20031;-69
2022/02/14 09:07:25;;;;;;;10.38;6.35;;;2.70;70.40;;;;;;4979547;28;20074;-67
2022/02/14 09:09:51;;;;;;;12.10;6.93;;;2.80;70.30;;;;;;4978532;28;20843;-68
2022/02/14 09:12:18;;;;;;;12.65;6.40;;;3.00;70.10;;;;;;4977306;28;20070;-67
2022/02/14 09:14:44;;;;;;;11.10;6.00;;;3.00;70.00;;;;;;4978447;28;20049;-67
2022/02/14 09:17:09;;;;;;;12.82;7.22;;;3.20;69.80;;;;;;4978968;28;20042;-67
2022/02/14 09:19:35;;;;;;;9.98;6.50;;;3.30;69.40;;;;;;4975585;28;20088;-67
2022/02/14 09:22:01;;;;;;;11.60;5.95;;;3.50;69.70;;;;;;4978726;28;20031;-68
2022/02/14 09:24:27;;;;;;;9.35;5.72;;;3.60;69.40;;;;;;4977216;28;20034;-67
2022/02/14 09:26:52;;;;;;;8.35;5.43;;;3.70;68.70;;;;;;4976798;28;20076;-67
2022/02/14 09:29:18;;;;;;;11.15;5.88;;;3.80;68.40;;;;;;4979219;28;20026;-67
2022/02/14 09:31:44;;;;;;;8.88;5.90;;;3.90;68.00;;;;;;4978036;28;20043;-67
2022/02/14 09:34:10;;;;;;;8.93;5.57;;;4.10;67.70;;;;;;4977818;28;20054;-67
2022/02/14 09:36:36;;;;;;;8.70;5.60;;;4.20;67.50;;;;;;4975573;28;20042;-67
2022/02/14 09:39:04;;;;;;;10.52;6.40;;;4.40;67.00;;;;;;4978483;28;20038;-66
2022/02/14 09:41:31;;;;;;;10.45;5.72;;;4.50;66.50;;;;;;4975173;28;20066;-67
2022/02/14 09:43:56;;;;;;;9.50;5.65;;;4.70;66.10;;;;;;4977022;28;20050;-65
2022/02/14 09:46:22;;;;;;;10.38;5.78;;;4.80;65.30;;;;;;4975921;28;20386;-67
2022/02/14 09:48:49;;;;;;;10.63;5.80;;;4.90;65.40;;;;;;4975535;28;20038;-66
2022/02/14 09:51:17;;;;;;;9.27;5.72;;;5.10;65.30;;;;;;4976837;28;20113;-66
2022/02/14 09:53:43;;;;;;;12.13;5.93;;;5.20;65.40;;;;;;4976672;28;20046;-66
2022/02/14 09:56:11;;;;;;;10.98;5.97;;;5.40;65.20;;;;;;4977951;28;20045;-66
2022/02/14 09:58:37;;;;;;;10.25;6.18;;;5.50;64.80;;;;;;4977215;28;20528;-66
2022/02/14 10:01:03;;;;;;;9.73;5.75;;;5.60;64.90;;;;;;4978372;28;20454;-67
2022/02/14 10:03:29;;;;;;;9.85;5.80;;;5.80;64.50;;;;;;4977248;28;20042;-67
2022/02/14 10:06:00;;;;;;;8.13;5.78;;;5.90;64.30;;;;;;4977586;28;21360;-67
2022/02/14 10:08:32;;;;;;;12.98;6.07;;;6.00;64.10;;;;;;4976384;28;20520;-67
2022/02/14 10:11:15;;;;;;;7.93;5.60;;;6.10;63.90;;;;;;4975687;28;20042;-67
2022/02/14 10:13:42;;;;;;;9.35;5.53;;;6.20;63.30;;;;;;4978133;28;20502;-66
2022/02/14 10:16:13;;;;;;;9.07;5.60;;;6.30;63.50;;;;;;4978593;28;20046;-66
2022/02/14 10:18:41;;;;;;;15.55;6.13;;;6.40;63.30;;;;;;4975814;28;20030;-67
2022/02/14 10:21:25;;;;;;;11.80;6.80;;;6.40;63.90;;;;;;4977666;28;20559;-66
2022/02/14 10:24:13;;;;;;;21.17;8.18;;;6.50;63.00;;;;;;4974730;28;20046;-67
2022/02/14 10:26:49;;;;;;;19.73;10.77;;;6.60;63.00;;;;;;4977620;28;20034;-66
2022/02/14 10:29:31;;;;;;;33.72;12.30;;;6.70;62.90;;;;;;4977331;28;20046;-65
2022/02/14 10:32:20;;;;;;;27.67;14.48;;;6.80;62.80;;;;;;4976595;28;20449;-67
2022/02/14 10:34:52;;;;;;;26.63;13.52;;;6.80;62.80;;;;;;4976101;28;20053;-67
2022/02/14 10:37:18;;;;;;;24.27;12.95;;;6.90;63.00;;;;;;4990636;28;20031;-66
2022/02/14 10:39:46;;;;;;;22.58;12.35;;;7.00;63.30;;;;;;4977026;28;20509;-67
2022/02/14 10:42:18;;;;;;;23.45;12.38;;;7.00;63.30;;;;;;4977379;28;20030;-67
2022/02/14 10:47:41;;;;;;;17.60;9.95;;;7.20;63.10;;;;;;4977268;28;20086;-67
2022/02/14 10:50:19;;;;;;;16.27;9.45;;;7.30;63.00;;;;;;4978858;28;20052;-66
2022/02/14 10:53:01;;;;;;;17.38;8.10;;;7.40;62.80;;;;;;4975622;28;20506;-67
2022/02/14 10:55:33;;;;;;;15.30;8.65;;;7.50;62.90;;;;;;4974976;28;20039;-67
2022/02/14 10:58:00;;;;;;;13.32;8.30;;;7.60;63.00;;;;;;4976790;28;20038;-67
2022/02/14 11:00:31;;;;;;;10.88;7.40;;;7.60;62.70;;;;;;4976954;28;20154;-66
2022/02/14 11:02:58;;;;;;;12.38;6.82;;;7.70;62.70;;;;;;4977048;28;20045;-67
2022/02/14 11:05:27;;;;;;;13.07;7.00;;;7.80;62.80;;;;;;4977439;28;20038;-67
2022/02/14 11:07:54;;;;;;;12.35;6.50;;;7.90;62.60;;;;;;4975010;28;20409;-66
2022/02/14 11:10:20;;;;;;;10.45;6.60;;;8.00;62.60;;;;;;4976919;28;20494;-65
2022/02/14 11:12:52;;;;;;;16.67;8.35;;;8.00;62.40;;;;;;4973525;28;20042;-66
2022/02/14 11:15:22;;;;;;;10.45;6.35;;;8.10;61.90;;;;;;4978574;28;20035;-66
2022/02/14 11:17:49;;;;;;;9.50;5.95;;;8.20;61.70;;;;;;4978354;28;20526;-67
2022/02/14 11:20:16;;;;;;;10.40;5.93;;;8.30;61.70;;;;;;4976061;28;20038;-66
2022/02/14 11:22:47;;;;;;;8.25;5.20;;;8.30;61.50;;;;;;4975555;28;20347;-65
2022/02/14 11:25:26;;;;;;;7.78;5.22;;;8.40;61.20;;;;;;4976673;28;20042;-66
2022/02/14 11:28:10;;;;;;;12.88;5.07;;;8.40;60.70;;;;;;4990215;28;20019;-66
2022/02/14 11:30:36;;;;;;;31.83;12.13;;;8.50;60.30;;;;;;4977373;28;20513;-67
2022/02/14 11:33:17;;;;;;;19.80;9.88;;;8.50;60.70;;;;;;4976399;28;20042;-67
2022/02/14 11:36:07;;;;;;;13.98;6.28;;;8.60;60.30;;;;;;4978320;28;20073;-67
2022/02/14 11:39:01;;;;;;;8.75;5.15;;;8.60;59.60;;;;;;4980908;28;20069;-66
2022/02/14 11:41:43;;;;;;;10.30;5.80;;;8.60;59.10;;;;;;4977831;28;20030;-66
2022/02/14 11:44:22;;;;;;;12.25;5.68;;;8.70;59.30;;;;;;4979954;28;20137;-66
2022/02/14 11:46:54;;;;;;;7.63;5.13;;;8.70;58.90;;;;;;4978172;28;20038;-67
2022/02/14 11:49:39;;;;;;;8.57;5.63;;;8.70;58.60;;;;;;4979696;28;20113;-66
2022/02/14 11:52:08;;;;;;;9.93;5.22;;;8.70;58.20;;;;;;4979504;28;20042;-67
2022/02/14 11:54:41;;;;;;;10.00;5.93;;;8.70;58.80;;;;;;4978602;28;20037;-66
2022/02/14 11:57:26;;;;;;;8.57;6.10;;;8.80;58.50;;;;;;4980636;28;20080;-67
2022/02/14 11:59:52;;;;;;;11.73;5.40;;;8.80;58.30;;;;;;4979780;28;20050;-67
2022/02/14 12:02:29;;;;;;;11.77;6.95;;;8.80;58.90;;;;;;4979484;28;20030;-67
2022/02/14 12:04:55;;;;;;;8.65;5.78;;;8.90;58.40;;;;;;4978387;28;20030;-67
2022/02/14 12:07:32;;;;;;;7.60;5.05;;;8.80;59.00;;;;;;4979228;28;20034;-67
2022/02/14 12:10:01;;;;;;;8.32;5.28;;;8.90;59.00;;;;;;4977837;28;20053;-67
2022/02/14 12:13:04;;;;;;;9.98;4.60;;;9.00;59.20;;;;;;4978306;28;20508;-67
2022/02/14 12:21:32;;;;;;;7.70;4.93;;;9.20;58.10;;;;;;4980213;28;20077;-67
2022/02/14 12:24:23;;;;;;;13.60;4.72;;;9.30;58.10;;;;;;4977380;28;20611;-67
2022/02/14 12:26:55;;;;;;;12.98;4.65;;;9.50;57.40;;;;;;4979159;28;20105;-67
2022/02/14 12:29:33;;;;;;;11.30;4.15;;;9.60;58.00;;;;;;4978100;28;20058;-67
2022/02/14 12:31:59;;;;;;;12.18;4.38;;;9.60;57.80;;;;;;4979612;28;20043;-67
2022/02/14 12:34:29;;;;;;;6.20;4.40;;;9.80;57.70;;;;;;4978035;28;20096;-66
2022/02/14 12:36:57;;;;;;;7.63;3.75;;;9.90;57.00;;;;;;4980158;28;20620;-66
2022/02/14 12:39:28;;;;;;;11.43;6.13;;;10.00;56.90;;;;;;4980132;28;20046;-67
2022/02/14 12:41:53;;;;;;;7.85;5.20;;;10.10;56.70;;;;;;4977464;28;20046;-66
2022/02/14 12:44:19;;;;;;;10.10;5.28;;;10.20;56.70;;;;;;4979562;28;20451;-66
2022/02/14 12:46:44;;;;;;;17.45;4.13;;;10.30;56.50;;;;;;4981251;28;20121;-67
2022/02/14 12:49:10;;;;;;;12.38;4.05;;;10.40;55.70;;;;;;4977667;28;20216;-66
2022/02/14 12:51:36;;;;;;;10.98;4.60;;;10.50;55.20;;;;;;4979645;28;20146;-66
2022/02/14 12:54:06;;;;;;;7.97;3.85;;;10.50;55.30;;;;;;4979558;28;20510;-66
2022/02/14 12:56:36;;;;;;;6.32;4.35;;;10.60;54.20;;;;;;4976808;28;20498;-66
2022/02/14 12:59:11;;;;;;;10.52;3.10;;;10.70;54.70;;;;;;4980712;28;20599;-66